Time;durP1;ratioP1;P1;durP2;ratioP2;P2;SDS_P1;SDS_P2;PMS_P1;PMS_P2;Temp;Humidity;BMP_temperature;BMP_pressure;BME280_temperature;BME280_humidity;BME280_pressure;Samples;Min_cycle;Max_cycle;Signal;HPM_P1;HPM_P2
2023/03/22 00:01:24;;;;;;;7.97;3.40;;;;;;;;;;5039504;28;20030;-75
2023/03/22 00:03:51;;;;;;;3.60;2.25;;;;;;;;;;5038379;28;20041;-75
2023/03/22 00:06:18;;;;;;;3.83;2.50;;;;;;;;;;5038860;28;20026;-74
2023/03/22 00:08:44;;;;;;;7.22;3.10;;;;;;;;;;5038456;28;20029;-74
2023/03/22 00:11:11;;;;;;;9.18;2.72;;;;;;;;;;5039243;28;20029;-74
2023/03/22 00:13:38;;;;;;;9.15;3.05;;;;;;;;;;5039139;28;20030;-74
2023/03/22 00:16:04;;;;;;;7.47;3.10;;;;;;;;;;5040137;28;20037;-73
2023/03/22 00:18:31;;;;;;;5.55;2.25;;;;;;;;;;5041084;28;20026;-75
2023/03/22 00:20:58;;;;;;;3.00;2.30;;;;;;;;;;5040769;28;20029;-74
2023/03/22 00:23:24;;;;;;;6.57;2.40;;;;;;;;;;5038697;28;20040;-75
2023/03/22 00:25:50;;;;;;;5.50;2.45;;;;;;;;;;5038690;28;20013;-75
2023/03/22 00:28:17;;;;;;;4.25;3.63;;;;;;;;;;5037368;28;20159;-74
2023/03/22 00:30:50;;;;;;;2.33;2.13;;;;;;;;;;5038183;28;20081;-75
2023/03/22 00:33:16;;;;;;;3.38;2.20;;;;;;;;;;5038947;28;20048;-74
2023/03/22 00:35:47;;;;;;;5.22;2.05;;;;;;;;;;5039895;28;20326;-75
2023/03/22 00:38:13;;;;;;;4.65;1.90;;;;;;;;;;5039128;28;20025;-74
2023/03/22 00:40:40;;;;;;;2.10;1.92;;;;;;;;;;5036786;28;20372;-73
2023/03/22 00:43:07;;;;;;;2.05;1.80;;;;;;;;;;5034668;28;20222;-75
2023/03/22 00:45:36;;;;;;;2.90;2.10;;;;;;;;;;5038892;28;20025;-75
2023/03/22 00:48:02;;;;;;;2.72;2.17;;;;;;;;;;5038387;28;20321;-74
2023/03/22 00:50:28;;;;;;;3.22;2.75;;;;;;;;;;5039185;28;20025;-75
2023/03/22 00:52:54;;;;;;;3.55;1.98;;;;;;;;;;5039371;28;20304;-74
2023/03/22 00:55:20;;;;;;;3.63;2.63;;;;;;;;;;5037360;28;20036;-74
2023/03/22 00:57:46;;;;;;;5.25;2.40;;;;;;;;;;5038053;28;20025;-74
2023/03/22 01:00:14;;;;;;;2.40;1.90;;;;;;;;;;5037086;28;20097;-73
2023/03/22 01:02:41;;;;;;;2.30;2.00;;;;;;;;;;5038057;28;20322;-74
2023/03/22 01:05:08;;;;;;;6.38;2.42;;;;;;;;;;5038735;28;20087;-74
2023/03/22 01:07:37;;;;;;;2.40;2.20;;;;;;;;;;5037045;28;20093;-75
2023/03/22 01:10:03;;;;;;;6.55;2.72;;;;;;;;;;5038837;28;20024;-74
2023/03/22 01:12:29;;;;;;;3.72;2.00;;;;;;;;;;5038283;28;20121;-74
2023/03/22 01:14:55;;;;;;;2.50;2.30;;;;;;;;;;5038242;28;20045;-74
2023/03/22 01:17:21;;;;;;;3.15;2.20;;;;;;;;;;5039859;28;20037;-75
2023/03/22 01:19:47;;;;;;;6.20;2.95;;;;;;;;;;5039308;28;20048;-74
2023/03/22 01:22:14;;;;;;;4.90;2.75;;;;;;;;;;5039781;28;20033;-73
2023/03/22 01:24:40;;;;;;;3.95;2.53;;;;;;;;;;5038110;28;20097;-73
2023/03/22 01:27:06;;;;;;;7.15;2.65;;;;;;;;;;5037332;28;20025;-73
2023/03/22 01:29:34;;;;;;;3.83;2.15;;;;;;;;;;5035043;28;20247;-74
2023/03/22 01:32:00;;;;;;;2.95;2.13;;;;;;;;;;5019409;28;20194;-74
2023/03/22 01:34:26;;;;;;;4.07;2.72;;;;;;;;;;5019094;28;20156;-74
2023/03/22 01:36:53;;;;;;;2.55;2.00;;;;;;;;;;5019561;28;20024;-74
2023/03/22 01:39:19;;;;;;;3.65;2.35;;;;;;;;;;5018947;28;20038;-74
2023/03/22 01:41:45;;;;;;;2.47;2.22;;;;;;;;;;5019647;28;20026;-74
2023/03/22 01:44:12;;;;;;;2.20;2.00;;;;;;;;;;5020245;28;20089;-74
2023/03/22 01:46:39;;;;;;;4.28;2.38;;;;;;;;;;5020137;28;20309;-73
2023/03/22 01:49:05;;;;;;;4.30;2.55;;;;;;;;;;5019758;28;20037;-74
2023/03/22 01:51:32;;;;;;;11.00;3.65;;;;;;;;;;5022538;28;20092;-74
2023/03/22 01:54:01;;;;;;;2.70;2.15;;;;;;;;;;5022317;28;20030;-74
2023/03/22 01:56:29;;;;;;;2.42;2.08;;;;;;;;;;5020957;28;20069;-74
2023/03/22 01:58:55;;;;;;;3.03;2.37;;;;;;;;;;5020272;28;20057;-74
2023/03/22 02:01:22;;;;;;;1.85;1.75;;;;;;;;;;5022192;28;20018;-74
2023/03/22 02:03:56;;;;;;;5.22;2.20;;;;;;;;;;5021240;28;20092;-74
2023/03/22 02:06:23;;;;;;;6.28;2.47;;;;;;;;;;5022272;28;20025;-74
2023/03/22 02:08:51;;;;;;;3.13;2.60;;;;;;;;;;5021195;28;20067;-74
2023/03/22 02:11:18;;;;;;;5.85;1.90;;;;;;;;;;5020910;28;20091;-74
2023/03/22 02:14:04;;;;;;;5.45;2.22;;;;;;;;;;5020818;28;20026;-74
2023/03/22 02:16:33;;;;;;;6.38;1.80;;;;;;;;;;5019928;28;20064;-74
2023/03/22 02:18:59;;;;;;;2.53;1.73;;;;;;;;;;5021018;28;20018;-74
2023/03/22 02:21:35;;;;;;;4.20;2.83;;;;;;;;;;5020126;28;20357;-74
2023/03/22 02:24:01;;;;;;;3.85;2.10;;;;;;;;;;5019842;28;20049;-74
2023/03/22 02:26:46;;;;;;;5.68;2.20;;;;;;;;;;5021153;28;20014;-74
2023/03/22 02:29:31;;;;;;;2.10;1.90;;;;;;;;;;5021252;28;20345;-74
2023/03/22 02:32:16;;;;;;;7.35;2.00;;;;;;;;;;5020106;28;20028;-74
2023/03/22 02:34:48;;;;;;;1.83;1.60;;;;;;;;;;5021129;28;20213;-73
2023/03/22 02:37:33;;;;;;;1.60;1.33;;;;;;;;;;5020565;28;20163;-73
2023/03/22 02:39:59;;;;;;;2.05;1.85;;;;;;;;;;5020457;28;20251;-73
2023/03/22 02:42:37;;;;;;;3.20;1.50;;;;;;;;;;5018174;28;20034;-73
2023/03/22 02:45:06;;;;;;;1.52;1.42;;;;;;;;;;5020649;28;20026;-74
2023/03/22 02:47:37;;;;;;;10.02;1.90;;;;;;;;;;5019227;28;20148;-74
2023/03/22 02:50:15;;;;;;;4.18;2.22;;;;;;;;;;5019431;28;20022;-74
2023/03/22 02:52:47;;;;;;;1.65;1.55;;;;;;;;;;5019366;28;20044;-74
2023/03/22 02:55:16;;;;;;;1.90;1.70;;;;;;;;;;5019434;28;20056;-74
2023/03/22 02:57:42;;;;;;;2.65;1.80;;;;;;;;;;5019436;28;20018;-74
2023/03/22 03:00:11;;;;;;;3.58;1.50;;;;;;;;;;5018322;28;20061;-74
2023/03/22 03:02:40;;;;;;;2.20;1.73;;;;;;;;;;5019527;28;20407;-74
2023/03/22 03:05:08;;;;;;;4.40;2.20;;;;;;;;;;5020806;28;20089;-73
2023/03/22 03:07:34;;;;;;;2.70;1.60;;;;;;;;;;5019274;28;20021;-73
2023/03/22 03:10:00;;;;;;;2.30;1.45;;;;;;;;;;5018502;28;20033;-74
2023/03/22 03:12:27;;;;;;;6.75;1.98;;;;;;;;;;5018358;28;20344;-74
2023/03/22 03:14:54;;;;;;;2.47;1.48;;;;;;;;;;5018721;28;20046;-74
2023/03/22 03:17:38;;;;;;;2.45;1.77;;;;;;;;;;5018550;28;20024;-74
2023/03/22 03:20:07;;;;;;;3.78;2.03;;;;;;;;;;5017816;28;20038;-73
2023/03/22 03:22:41;;;;;;;4.18;2.17;;;;;;;;;;5019084;28;20029;-74
2023/03/22 03:25:20;;;;;;;2.53;1.83;;;;;;;;;;5018292;28;20056;-74
2023/03/22 03:27:49;;;;;;;2.37;1.73;;;;;;;;;;5020259;28;20022;-74
2023/03/22 03:30:42;;;;;;;3.13;1.83;;;;;;;;;;5018645;28;20381;-74
2023/03/22 03:33:09;;;;;;;1.75;1.33;;;;;;;;;;5017497;28;20061;-74
2023/03/22 03:35:50;;;;;;;2.22;1.98;;;;;;;;;;5020004;28;20017;-74
2023/03/22 03:38:19;;;;;;;5.05;1.98;;;;;;;;;;5022672;28;20037;-74
2023/03/22 03:40:47;;;;;;;2.47;1.50;;;;;;;;;;5023901;28;20241;-73
2023/03/22 03:43:14;;;;;;;3.67;2.00;;;;;;;;;;5023812;28;20101;-73
2023/03/22 03:45:40;;;;;;;3.45;2.60;;;;;;;;;;5022974;28;20072;-74
2023/03/22 03:48:08;;;;;;;4.40;2.45;;;;;;;;;;5022965;28;20017;-74
2023/03/22 03:50:34;;;;;;;4.65;1.98;;;;;;;;;;5023327;28;20206;-74
2023/03/22 03:53:00;;;;;;;2.47;1.88;;;;;;;;;;5024561;28;20276;-74
2023/03/22 03:55:27;;;;;;;5.28;1.88;;;;;;;;;;5025080;28;20275;-74
2023/03/22 03:57:53;;;;;;;2.25;1.95;;;;;;;;;;5022970;28;20025;-74
2023/03/22 04:00:19;;;;;;;3.25;1.45;;;;;;;;;;5023698;28;20286;-74
2023/03/22 04:02:46;;;;;;;3.85;1.90;;;;;;;;;;5023858;28;20086;-74
2023/03/22 04:05:12;;;;;;;2.58;2.03;;;;;;;;;;5023390;28;20053;-73
2023/03/22 04:07:39;;;;;;;2.38;2.17;;;;;;;;;;5021844;28;20049;-74
2023/03/22 04:10:05;;;;;;;5.85;2.33;;;;;;;;;;5022515;28;20068;-74
2023/03/22 04:12:31;;;;;;;1.60;1.50;;;;;;;;;;5022535;28;20265;-74
2023/03/22 04:14:57;;;;;;;2.85;1.80;;;;;;;;;;5022902;28;20030;-74
2023/03/22 04:17:24;;;;;;;5.10;1.77;;;;;;;;;;5022729;28;20635;-75
2023/03/22 04:19:52;;;;;;;1.77;1.67;;;;;;;;;;5023080;28;20036;-74
2023/03/22 04:22:18;;;;;;;2.67;2.17;;;;;;;;;;5022419;28;20014;-74
2023/03/22 04:24:48;;;;;;;1.80;1.70;;;;;;;;;;5022456;28;20030;-74
2023/03/22 04:27:15;;;;;;;2.72;1.67;;;;;;;;;;5022509;28;20029;-74
2023/03/22 04:29:47;;;;;;;2.60;2.15;;;;;;;;;;5020911;28;20097;-74
2023/03/22 04:32:21;;;;;;;1.77;1.52;;;;;;;;;;5021161;28;20129;-73
2023/03/22 04:34:47;;;;;;;2.78;1.67;;;;;;;;;;5021573;28;20230;-74
2023/03/22 04:37:14;;;;;;;2.00;1.30;;;;;;;;;;5021231;28;20145;-73
2023/03/22 04:39:40;;;;;;;2.95;1.83;;;;;;;;;;5021287;28;20022;-74
2023/03/22 04:42:06;;;;;;;3.10;1.27;;;;;;;;;;5021751;28;20017;-73
2023/03/22 04:44:32;;;;;;;3.33;1.95;;;;;;;;;;5021683;28;20153;-74
2023/03/22 04:46:58;;;;;;;11.75;2.83;;;;;;;;;;5021319;28;20017;-73
2023/03/22 04:49:25;;;;;;;1.95;1.83;;;;;;;;;;5020380;28;20040;-74
2023/03/22 04:51:52;;;;;;;4.53;2.85;;;;;;;;;;5021141;28;20026;-74
2023/03/22 04:54:18;;;;;;;4.15;1.65;;;;;;;;;;5022001;28;20032;-74
2023/03/22 04:56:44;;;;;;;2.03;1.50;;;;;;;;;;5021762;28;20026;-74
2023/03/22 04:59:10;;;;;;;2.63;2.30;;;;;;;;;;5020705;28;20038;-74
2023/03/22 05:01:36;;;;;;;1.88;1.35;;;;;;;;;;5021623;28;20014;-73
2023/03/22 05:04:03;;;;;;;1.88;1.55;;;;;;;;;;5013136;28;20478;-74
2023/03/22 05:06:31;;;;;;;2.22;1.83;;;;;;;;;;5012899;28;20447;-74
2023/03/22 05:08:57;;;;;;;2.65;1.65;;;;;;;;;;5011849;28;20474;-74
2023/03/22 05:11:26;;;;;;;4.68;2.20;;;;;;;;;;5012814;28;20021;-74
2023/03/22 05:13:52;;;;;;;2.53;2.30;;;;;;;;;;5011951;28;20022;-74
2023/03/22 05:16:19;;;;;;;2.30;2.00;;;;;;;;;;5013154;28;20056;-74
2023/03/22 05:18:48;;;;;;;7.03;1.98;;;;;;;;;;5012503;28;20493;-74
2023/03/22 05:21:14;;;;;;;;;;;;;;;;;;5011383;28;20029;-74
2023/03/22 05:23:43;;;;;;;3.13;1.73;;;;;;;;;;5011287;28;19913;-74
2023/03/22 05:26:10;;;;;;;2.60;1.45;;;;;;;;;;5029593;28;20036;-73
2023/03/22 05:28:36;;;;;;;2.58;1.88;;;;;;;;;;5027812;28;20263;-74
2023/03/22 05:31:03;;;;;;;2.78;1.65;;;;;;;;;;5028185;28;20033;-74
2023/03/22 05:33:29;;;;;;;2.33;1.63;;;;;;;;;;5029708;28;20055;-74
2023/03/22 05:35:55;;;;;;;2.90;1.50;;;;;;;;;;5029495;28;20274;-73
2023/03/22 05:38:24;;;;;;;1.95;1.75;;;;;;;;;;5028882;28;20083;-74
2023/03/22 05:40:50;;;;;;;1.90;1.70;;;;;;;;;;5029350;28;20021;-75
2023/03/22 05:43:17;;;;;;;5.45;2.00;;;;;;;;;;5029621;28;20390;-75
2023/03/22 05:45:44;;;;;;;4.22;2.00;;;;;;;;;;5030759;28;20434;-74
2023/03/22 05:48:11;;;;;;;3.60;1.60;;;;;;;;;;5031635;28;20381;-74
2023/03/22 05:50:37;;;;;;;3.22;1.95;;;;;;;;;;5030879;28;20079;-74
2023/03/22 05:53:03;;;;;;;3.95;1.63;;;;;;;;;;5031105;28;20041;-74
2023/03/22 05:55:30;;;;;;;3.88;2.55;;;;;;;;;;5031004;28;20061;-74
2023/03/22 05:57:57;;;;;;;4.72;1.23;;;;;;;;;;5030840;28;20018;-74
2023/03/22 06:00:24;;;;;;;1.95;1.63;;;;;;;;;;5030441;28;20033;-74
2023/03/22 06:02:55;;;;;;;1.25;1.15;;;;;;;;;;5030430;28;20037;-74
2023/03/22 06:05:21;;;;;;;2.08;1.80;;;;;;;;;;5029464;28;20104;-75
2023/03/22 06:07:47;;;;;;;1.80;1.63;;;;;;;;;;5032298;28;20026;-74
2023/03/22 06:10:17;;;;;;;1.50;1.40;;;;;;;;;;5032340;28;20026;-74
2023/03/22 06:12:44;;;;;;;5.22;2.22;;;;;;;;;;5029529;28;20497;-75
2023/03/22 06:15:10;;;;;;;3.53;1.77;;;;;;;;;;5026472;28;20172;-74
2023/03/22 06:17:36;;;;;;;2.15;1.85;;;;;;;;;;5029001;28;20034;-74
2023/03/22 06:20:09;;;;;;;2.40;1.70;;;;;;;;;;5030491;28;20545;-74
2023/03/22 06:22:36;;;;;;;3.33;1.88;;;;;;;;;;5030415;28;20034;-74
2023/03/22 06:25:02;;;;;;;2.92;2.00;;;;;;;;;;5030315;28;20413;-74
2023/03/22 06:27:28;;;;;;;2.00;1.83;;;;;;;;;;5029838;28;20021;-74
2023/03/22 06:29:54;;;;;;;2.90;2.22;;;;;;;;;;5029838;28;20050;-75
2023/03/22 06:32:25;;;;;;;1.67;1.38;;;;;;;;;;5029835;28;20024;-74
2023/03/22 06:34:51;;;;;;;2.70;1.95;;;;;;;;;;5028734;28;20413;-74
2023/03/22 06:37:18;;;;;;;4.68;1.75;;;;;;;;;;5029992;28;20026;-74
2023/03/22 06:39:44;;;;;;;4.28;2.40;;;;;;;;;;5029784;28;20017;-74
2023/03/22 06:42:10;;;;;;;2.05;1.90;;;;;;;;;;5028386;28;20075;-74
2023/03/22 06:44:36;;;;;;;2.42;2.00;;;;;;;;;;5029742;28;20065;-74
2023/03/22 06:47:03;;;;;;;2.50;1.92;;;;;;;;;;5028354;28;20021;-74
2023/03/22 06:49:30;;;;;;;3.13;2.25;;;;;;;;;;5029454;28;20029;-74
2023/03/22 06:51:56;;;;;;;4.28;2.15;;;;;;;;;;5029502;28;20017;-74
2023/03/22 06:54:22;;;;;;;3.13;2.38;;;;;;;;;;5028144;28;20445;-75
2023/03/22 06:56:48;;;;;;;2.22;1.90;;;;;;;;;;5029409;28;20120;-75
2023/03/22 06:59:14;;;;;;;2.03;1.80;;;;;;;;;;5030106;28;20017;-75
2023/03/22 07:01:40;;;;;;;3.00;1.95;;;;;;;;;;5029731;28;20032;-74
2023/03/22 07:04:06;;;;;;;3.28;1.75;;;;;;;;;;5029533;28;20038;-75
2023/03/22 07:06:32;;;;;;;3.40;2.47;;;;;;;;;;5029448;28;20023;-75
2023/03/22 07:08:58;;;;;;;2.85;1.90;;;;;;;;;;5024544;28;20021;-75
2023/03/22 07:11:25;;;;;;;2.55;1.70;;;;;;;;;;5017494;28;20026;-77
2023/03/22 07:13:52;;;;;;;2.60;2.20;;;;;;;;;;5039558;28;20025;-77
2023/03/22 07:16:18;;;;;;;2.35;1.67;;;;;;;;;;5023772;28;20017;-76
2023/03/22 07:18:44;;;;;;;3.42;2.72;;;;;;;;;;5029878;28;20033;-75
2023/03/22 07:21:10;;;;;;;4.50;2.33;;;;;;;;;;5031060;28;20029;-75
2023/03/22 07:23:36;;;;;;;4.43;2.28;;;;;;;;;;5030182;28;20092;-75
2023/03/22 07:26:02;;;;;;;7.05;2.92;;;;;;;;;;5029700;28;20038;-75
2023/03/22 07:28:28;;;;;;;4.53;2.35;;;;;;;;;;5028303;28;20543;-75
2023/03/22 07:31:20;;;;;;;2.20;2.00;;;;;;;;;;5029466;28;20077;-75
2023/03/22 07:33:47;;;;;;;2.78;2.50;;;;;;;;;;5026924;28;20482;-76
2023/03/22 07:36:13;;;;;;;6.45;2.63;;;;;;;;;;5029549;28;20402;-76
2023/03/22 07:38:40;;;;;;;1.98;1.83;;;;;;;;;;5029137;28;20370;-76
2023/03/22 07:41:06;;;;;;;5.47;2.35;;;;;;;;;;5029459;28;20251;-76
2023/03/22 07:43:32;;;;;;;5.80;2.45;;;;;;;;;;5029759;28;20482;-76
2023/03/22 07:45:58;;;;;;;3.72;2.50;;;;;;;;;;5029651;28;20028;-75
2023/03/22 07:48:24;;;;;;;3.90;1.98;;;;;;;;;;5029265;28;20432;-76
2023/03/22 07:50:54;;;;;;;1.88;1.77;;;;;;;;;;5029347;28;20030;-76
2023/03/22 07:53:20;;;;;;;3.22;2.22;;;;;;;;;;5029773;28;20036;-76
2023/03/22 07:55:47;;;;;;;2.15;1.98;;;;;;;;;;5029800;28;20018;-76
2023/03/22 07:58:13;;;;;;;6.93;2.30;;;;;;;;;;5031474;28;20279;-76
2023/03/22 08:00:40;;;;;;;3.63;2.28;;;;;;;;;;5031915;28;20030;-76
2023/03/22 08:03:06;;;;;;;2.30;1.83;;;;;;;;;;5030255;28;20056;-76
2023/03/22 08:05:32;;;;;;;3.92;2.15;;;;;;;;;;5028522;28;20289;-75
2023/03/22 08:07:58;;;;;;;3.65;1.75;;;;;;;;;;5030324;28;20029;-76
2023/03/22 08:10:24;;;;;;;4.10;1.58;;;;;;;;;;5027876;28;20025;-75
2023/03/22 08:12:50;;;;;;;9.95;3.58;;;;;;;;;;5030065;28;20486;-76
2023/03/22 08:15:16;;;;;;;3.10;1.95;;;;;;;;;;5028846;28;20029;-76
2023/03/22 08:17:42;;;;;;;4.28;2.25;;;;;;;;;;5028753;28;20033;-76
2023/03/22 08:20:08;;;;;;;2.70;1.88;;;;;;;;;;5029004;28;20137;-76
2023/03/22 08:22:35;;;;;;;6.72;2.38;;;;;;;;;;5028625;28;20316;-74
2023/03/22 08:25:02;;;;;;;5.47;2.28;;;;;;;;;;5027676;28;20025;-74
2023/03/22 08:27:28;;;;;;;3.03;2.28;;;;;;;;;;5028740;28;20477;-75
2023/03/22 08:29:54;;;;;;;1.77;1.67;;;;;;;;;;5028927;28;20053;-75
2023/03/22 08:32:20;;;;;;;2.30;1.75;;;;;;;;;;5029621;28;20030;-77
2023/03/22 08:34:46;;;;;;;5.25;1.73;;;;;;;;;;5028646;28;20029;-74
2023/03/22 08:37:12;;;;;;;3.63;1.63;;;;;;;;;;5028847;28;20053;-74
2023/03/22 08:39:39;;;;;;;2.42;2.20;;;;;;;;;;5028799;28;20027;-76
2023/03/22 08:42:05;;;;;;;5.68;2.28;;;;;;;;;;5028817;28;20386;-77
2023/03/22 08:44:31;;;;;;;2.40;1.83;;;;;;;;;;5028142;28;20035;-76
2023/03/22 08:46:57;;;;;;;1.38;1.30;;;;;;;;;;5028294;28;20112;-75
2023/03/22 08:49:23;;;;;;;5.88;2.05;;;;;;;;;;5028330;28;20109;-76
2023/03/22 08:51:49;;;;;;;3.10;1.60;;;;;;;;;;5028173;28;20112;-76
2023/03/22 08:54:15;;;;;;;2.38;1.70;;;;;;;;;;5028097;28;20018;-74
2023/03/22 08:56:41;;;;;;;3.65;1.35;;;;;;;;;;5029488;28;20112;-76
2023/03/22 08:59:08;;;;;;;5.05;1.52;;;;;;;;;;5030214;28;20044;-76
2023/03/22 09:01:34;;;;;;;3.13;1.40;;;;;;;;;;5028724;28;20022;-76
2023/03/22 09:04:00;;;;;;;2.85;1.65;;;;;;;;;;5028822;28;20117;-77
2023/03/22 09:06:26;;;;;;;2.15;1.30;;;;;;;;;;5028789;28;20028;-75
2023/03/22 09:08:53;;;;;;;3.00;1.20;;;;;;;;;;5026476;28;20112;-76
2023/03/22 09:11:19;;;;;;;2.00;1.48;;;;;;;;;;5026731;28;20049;-76
2023/03/22 09:13:46;;;;;;;2.83;1.20;;;;;;;;;;5030369;28;20021;-75
2023/03/22 09:16:12;;;;;;;2.80;1.10;;;;;;;;;;5028639;28;20033;-76
2023/03/22 09:18:39;;;;;;;3.63;1.00;;;;;;;;;;5029531;28;20026;-75
2023/03/22 09:21:06;;;;;;;1.50;1.02;;;;;;;;;;5028227;28;20048;-75
2023/03/22 09:23:32;;;;;;;4.38;1.55;;;;;;;;;;5028420;28;20466;-75
2023/03/22 09:26:03;;;;;;;2.20;1.60;;;;;;;;;;5026533;28;20116;-75
2023/03/22 09:28:30;;;;;;;3.15;1.77;;;;;;;;;;5027826;28;20061;-75
2023/03/22 09:31:00;;;;;;;1.35;1.25;;;;;;;;;;5027676;28;20107;-74
2023/03/22 09:33:26;;;;;;;2.80;1.73;;;;;;;;;;5029039;28;20080;-75
2023/03/22 09:35:53;;;;;;;1.80;1.20;;;;;;;;;;5028562;28;20022;-75
2023/03/22 09:38:20;;;;;;;2.78;1.08;;;;;;;;;;5028296;28;20124;-74
2023/03/22 09:40:59;;;;;;;4.10;1.27;;;;;;;;;;5028730;28;20067;-75
2023/03/22 09:43:45;;;;;;;2.42;1.33;;;;;;;;;;5028805;28;20041;-75
2023/03/22 09:46:23;;;;;;;0.80;0.80;;;;;;;;;;5028791;28;20025;-74
2023/03/22 09:48:50;;;;;;;0.88;0.82;;;;;;;;;;5029060;28;20017;-75
2023/03/22 09:51:28;;;;;;;3.08;1.52;;;;;;;;;;5028940;28;20172;-75
2023/03/22 09:53:54;;;;;;;3.60;1.33;;;;;;;;;;5029287;28;20021;-75
2023/03/22 09:56:22;;;;;;;2.13;1.02;;;;;;;;;;5030401;28;20025;-75
2023/03/22 09:58:48;;;;;;;4.05;1.00;;;;;;;;;;5030555;28;20028;-75
2023/03/22 10:01:23;;;;;;;5.43;1.10;;;;;;;;;;5030624;28;20022;-75
2023/03/22 10:04:01;;;;;;;3.50;1.70;;;;;;;;;;5030293;28;20072;-75
2023/03/22 10:06:27;;;;;;;1.15;0.95;;;;;;;;;;5029146;28;20029;-75
2023/03/22 10:09:08;;;;;;;1.67;1.35;;;;;;;;;;5030088;28;20048;-76
2023/03/22 10:11:46;;;;;;;1.08;0.98;;;;;;;;;;5028867;28;20028;-76
2023/03/22 10:14:24;;;;;;;3.63;1.40;;;;;;;;;;5029729;28;20482;-75
2023/03/22 10:16:52;;;;;;;1.42;0.93;;;;;;;;;;5030092;28;20029;-75
2023/03/22 10:19:30;;;;;;;1.83;0.73;;;;;;;;;;5030157;28;20021;-75
2023/03/22 10:21:57;;;;;;;4.53;1.30;;;;;;;;;;5030371;28;20025;-75
2023/03/22 10:24:26;;;;;;;2.42;0.73;;;;;;;;;;5029893;28;20402;-74
2023/03/22 10:26:53;;;;;;;3.03;0.88;;;;;;;;;;5028369;28;20482;-74
2023/03/22 10:29:34;;;;;;;0.95;0.75;;;;;;;;;;5028056;28;20052;-76
2023/03/22 10:32:17;;;;;;;2.97;0.90;;;;;;;;;;5029872;28;20084;-75
2023/03/22 10:34:43;;;;;;;1.67;0.80;;;;;;;;;;5029960;28;20026;-75
2023/03/22 10:37:13;;;;;;;1.35;0.95;;;;;;;;;;5028409;28;20547;-75
2023/03/22 10:39:39;;;;;;;;;;;;;;;;;;5030094;28;20363;-75
2023/03/22 10:42:07;;;;;;;3.88;1.30;;;;;;;;;;5029965;28;19916;-75
2023/03/22 10:44:37;;;;;;;1.65;0.52;;;;;;;;;;5029636;28;20033;-75
2023/03/22 10:47:06;;;;;;;0.65;0.65;;;;;;;;;;5024728;28;20010;-75
2023/03/22 10:49:37;;;;;;;0.70;0.70;;;;;;;;;;5015153;28;20053;-74
2023/03/22 10:52:08;;;;;;;0.75;0.75;;;;;;;;;;5016447;28;20022;-76
2023/03/22 10:54:35;;;;;;;0.40;0.40;;;;;;;;;;5016218;28;20556;-75
2023/03/22 10:57:02;;;;;;;0.82;0.75;;;;;;;;;;5014727;28;20065;-75
2023/03/22 10:59:46;;;;;;;0.50;0.30;;;;;;;;;;5016207;28;20030;-75
2023/03/22 11:02:20;;;;;;;1.48;0.88;;;;;;;;;;5016140;28;20030;-75
2023/03/22 11:04:50;;;;;;;0.30;0.30;;;;;;;;;;5016313;28;20520;-75
2023/03/22 11:07:26;;;;;;;0.70;0.70;;;;;;;;;;5015849;28;20026;-74
2023/03/22 11:09:57;;;;;;;0.77;0.77;;;;;;;;;;5014864;28;20030;-75
2023/03/22 11:12:24;;;;;;;2.30;1.02;;;;;;;;;;5016187;28;20057;-75
2023/03/22 11:14:50;;;;;;;0.80;0.80;;;;;;;;;;5015973;28;20088;-75
2023/03/22 11:17:22;;;;;;;4.88;1.15;;;;;;;;;;5015981;28;20021;-75
2023/03/22 11:19:53;;;;;;;1.13;1.00;;;;;;;;;;5014650;28;20057;-75
2023/03/22 11:22:25;;;;;;;0.57;0.57;;;;;;;;;;5016239;28;20105;-74
2023/03/22 11:24:51;;;;;;;1.60;1.15;;;;;;;;;;5016044;28;20245;-75
2023/03/22 11:27:19;;;;;;;6.47;1.20;;;;;;;;;;5015805;28;20025;-75
2023/03/22 11:29:46;;;;;;;3.58;1.20;;;;;;;;;;5015604;28;20096;-75
2023/03/22 11:32:25;;;;;;;0.88;0.80;;;;;;;;;;5014584;28;20032;-75
2023/03/22 11:35:14;;;;;;;1.23;1.13;;;;;;;;;;5015302;28;20434;-75
2023/03/22 11:37:47;;;;;;;1.25;0.60;;;;;;;;;;5006892;28;20038;-75
2023/03/22 11:40:14;;;;;;;1.00;0.68;;;;;;;;;;5015797;28;20088;-76
2023/03/22 11:42:40;;;;;;;1.40;0.75;;;;;;;;;;5015555;28;20025;-76
2023/03/22 11:45:07;;;;;;;1.27;0.80;;;;;;;;;;5031224;28;20067;-75
2023/03/22 11:47:36;;;;;;;0.70;0.57;;;;;;;;;;5035460;28;20025;-76
2023/03/22 11:50:04;;;;;;;1.50;0.60;;;;;;;;;;5034544;28;20049;-75
2023/03/22 11:52:30;;;;;;;0.57;0.57;;;;;;;;;;5034308;28;20252;-75
2023/03/22 11:54:58;;;;;;;1.00;0.90;;;;;;;;;;5035804;28;20222;-76
2023/03/22 11:57:27;;;;;;;0.82;0.60;;;;;;;;;;5035313;28;20056;-74
2023/03/22 11:59:53;;;;;;;4.00;0.73;;;;;;;;;;5030393;28;20021;-75
2023/03/22 12:02:22;;;;;;;1.27;0.80;;;;;;;;;;5032021;28;20028;-75
2023/03/22 12:04:48;;;;;;;;;;;;;;;;;;5033041;28;20033;-76
2023/03/22 12:07:15;;;;;;;1.77;0.63;;;;;;;;;;5027424;28;19912;-76
2023/03/22 12:09:49;;;;;;;1.20;0.70;;;;;;;;;;5031459;28;20052;-76
2023/03/22 12:12:17;;;;;;;0.47;0.47;;;;;;;;;;5032184;28;20080;-77
2023/03/22 12:14:44;;;;;;;0.57;0.57;;;;;;;;;;5027513;28;20390;-75
2023/03/22 12:17:12;;;;;;;1.52;0.88;;;;;;;;;;5027962;28;20057;-77
2023/03/22 12:19:49;;;;;;;0.88;0.70;;;;;;;;;;5030128;28;20021;-76
2023/03/22 12:22:17;;;;;;;1.05;0.32;;;;;;;;;;5030938;28;20026;-74
2023/03/22 12:24:43;;;;;;;2.25;1.00;;;;;;;;;;5029809;28;20144;-74
2023/03/22 12:27:15;;;;;;;1.85;0.82;;;;;;;;;;5032249;28;20538;-77
2023/03/22 12:29:47;;;;;;;1.05;0.98;;;;;;;;;;5030360;28;20140;-76
2023/03/22 12:32:19;;;;;;;1.00;0.60;;;;;;;;;;5031973;28;20438;-74
2023/03/22 12:34:47;;;;;;;1.08;0.68;;;;;;;;;;5032936;28;20021;-75
2023/03/22 12:37:17;;;;;;;10.70;5.75;;;;;;;;;;5031343;28;20029;-75
2023/03/22 12:39:47;;;;;;;0.40;0.40;;;;;;;;;;5030030;28;20095;-75
2023/03/22 12:42:29;;;;;;;2.50;0.60;;;;;;;;;;5030166;28;20048;-79
2023/03/22 12:45:05;;;;;;;3.65;0.70;;;;;;;;;;5031638;28;20460;-75
2023/03/22 12:47:40;;;;;;;2.50;0.68;;;;;;;;;;5030559;28;20021;-75
2023/03/22 12:50:17;;;;;;;1.13;0.40;;;;;;;;;;5031624;28;20026;-77
2023/03/22 12:52:50;;;;;;;0.40;0.40;;;;;;;;;;5031524;28;20037;-77
2023/03/22 12:55:25;;;;;;;2.72;0.47;;;;;;;;;;5030212;28;20086;-78
2023/03/22 12:57:53;;;;;;;0.90;0.50;;;;;;;;;;5031580;28;20040;-77
2023/03/22 13:00:19;;;;;;;2.25;0.50;;;;;;;;;;5031426;28;20025;-77
2023/03/22 13:03:09;;;;;;;0.38;0.35;;;;;;;;;;5031449;28;20052;-78
2023/03/22 13:05:36;;;;;;;0.52;0.47;;;;;;;;;;5019519;28;20033;-78
2023/03/22 13:08:04;;;;;;;1.40;0.30;;;;;;;;;;5029972;28;20409;-78
2023/03/22 13:10:30;;;;;;;0.47;0.47;;;;;;;;;;5029102;28;20060;-77
2023/03/22 13:13:12;;;;;;;12.50;1.13;;;;;;;;;;5029527;28;20373;-78
2023/03/22 13:15:40;;;;;;;0.52;0.40;;;;;;;;;;5031131;28;20104;-80
2023/03/22 13:18:22;;;;;;;2.35;1.05;;;;;;;;;;5031069;28;20021;-77
2023/03/22 13:21:07;;;;;;;1.80;0.60;;;;;;;;;;5031102;28;20509;-75
2023/03/22 13:23:33;;;;;;;0.60;0.38;;;;;;;;;;5029821;28;20120;-82
2023/03/22 13:26:01;;;;;;;0.32;0.32;;;;;;;;;;5026503;28;20612;-77
2023/03/22 13:28:28;;;;;;;3.50;1.00;;;;;;;;;;5029795;28;20029;-77
2023/03/22 13:30:56;;;;;;;0.43;0.40;;;;;;;;;;5028839;28;20042;-77
2023/03/22 13:33:28;;;;;;;0.98;0.60;;;;;;;;;;5029016;28;20492;-77
2023/03/22 13:35:55;;;;;;;0.43;0.35;;;;;;;;;;5029926;28;20104;-77
2023/03/22 13:38:21;;;;;;;0.50;0.50;;;;;;;;;;5030236;28;20026;-77
2023/03/22 13:40:47;;;;;;;1.10;0.80;;;;;;;;;;5028417;28;20048;-77
2023/03/22 13:43:16;;;;;;;0.50;0.50;;;;;;;;;;5028268;28;20044;-78
2023/03/22 13:46:01;;;;;;;2.63;0.60;;;;;;;;;;5029197;28;20029;-77
2023/03/22 13:48:39;;;;;;;0.65;0.60;;;;;;;;;;5030079;28;20171;-77
2023/03/22 13:51:24;;;;;;;1.75;0.52;;;;;;;;;;5028766;28;20036;-77
2023/03/22 13:53:54;;;;;;;2.38;0.43;;;;;;;;;;5030189;28;20021;-77
2023/03/22 13:56:34;;;;;;;1.45;0.50;;;;;;;;;;5029093;28;20106;-77
2023/03/22 13:59:02;;;;;;;0.85;0.50;;;;;;;;;;5027117;28;20537;-77
2023/03/22 14:01:37;;;;;;;1.25;0.60;;;;;;;;;;5029613;28;20026;-78
2023/03/22 14:04:09;;;;;;;0.82;0.30;;;;;;;;;;5035945;28;20037;-78
2023/03/22 14:06:42;;;;;;;1.35;0.80;;;;;;;;;;5027600;28;20382;-78
2023/03/22 14:09:16;;;;;;;1.38;0.52;;;;;;;;;;5028084;28;20029;-78
2023/03/22 14:11:42;;;;;;;0.88;0.30;;;;;;;;;;5030545;28;20025;-77
2023/03/22 14:14:13;;;;;;;0.40;0.30;;;;;;;;;;5037030;28;20512;-77
2023/03/22 14:16:45;;;;;;;1.17;1.00;;;;;;;;;;5030714;28;20378;-78
2023/03/22 14:19:17;;;;;;;1.63;0.60;;;;;;;;;;5030037;28;20032;-78
2023/03/22 14:21:46;;;;;;;1.13;0.60;;;;;;;;;;5029494;28;20053;-77
2023/03/22 14:24:16;;;;;;;1.00;0.50;;;;;;;;;;5026287;28;20033;-77
2023/03/22 14:26:53;;;;;;;1.65;0.60;;;;;;;;;;5015309;28;20037;-76
2023/03/22 14:29:21;;;;;;;0.60;0.60;;;;;;;;;;5007468;28;20050;-78
2023/03/22 14:31:56;;;;;;;0.52;0.52;;;;;;;;;;5014928;28;20033;-79
2023/03/22 14:34:22;;;;;;;0.50;0.50;;;;;;;;;;5030504;28;20029;-77
2023/03/22 14:36:54;;;;;;;2.17;0.73;;;;;;;;;;5027994;28;20103;-78
2023/03/22 14:39:21;;;;;;;0.47;0.40;;;;;;;;;;5029691;28;20022;-78
2023/03/22 14:41:58;;;;;;;1.67;0.38;;;;;;;;;;5028350;28;20029;-79
2023/03/22 14:44:24;;;;;;;0.68;0.65;;;;;;;;;;5027789;28;20379;-77
2023/03/22 14:46:50;;;;;;;0.70;0.60;;;;;;;;;;5029408;28;20026;-77
2023/03/22 14:49:18;;;;;;;0.65;0.63;;;;;;;;;;5028178;28;20036;-77
2023/03/22 14:51:47;;;;;;;0.40;0.40;;;;;;;;;;5029472;28;20025;-78
2023/03/22 14:54:17;;;;;;;1.15;0.60;;;;;;;;;;5029569;28;20108;-77